Time;durP1;ratioP1;P1;durP2;ratioP2;P2;SDS_P1;SDS_P2;PMS_P1;PMS_P2;Temp;Humidity;BMP_temperature;BMP_pressure;BME280_temperature;BME280_humidity;BME280_pressure;Samples;Min_cycle;Max_cycle;Signal;HPM_P1;HPM_P2
2023/09/08 00:02:26;;;;;;;2.38;1.63;;;19.80;99.90;;;;;;4936607;29;20401;-77
2023/09/08 00:04:52;;;;;;;1.75;1.60;;;19.70;99.90;;;;;;4933559;29;20350;-77
2023/09/08 00:07:17;;;;;;;2.03;1.70;;;19.60;99.90;;;;;;4916737;28;20446;-78
2023/09/08 00:09:43;;;;;;;;;;;19.60;99.90;;;;;;4950568;28;20114;-77
2023/09/08 00:12:09;;;;;;;2.47;1.83;;;19.60;99.90;;;;;;4935309;29;19918;-77
2023/09/08 00:14:34;;;;;;;;;;;19.50;99.90;;;;;;4951550;29;20062;-77
2023/09/08 00:17:00;;;;;;;2.42;1.95;;;19.50;99.90;;;;;;4934079;29;19922;-77
2023/09/08 00:19:26;;;;;;;;;;;19.40;99.90;;;;;;4952050;29;20469;-77
2023/09/08 00:21:51;;;;;;;2.85;2.15;;;19.40;99.90;;;;;;4935180;29;19926;-77
2023/09/08 00:24:18;;;;;;;;;;;19.40;99.90;;;;;;4934658;29;20070;-77
2023/09/08 00:26:43;;;;;;;2.30;2.00;;;19.40;99.90;;;;;;4950264;29;20433;-77
2023/09/08 00:29:09;;;;;;;;;;;19.30;99.90;;;;;;4944638;28;20055;-77
2023/09/08 00:31:35;;;;;;;2.85;2.10;;;19.30;1.00;;;;;;4948639;28;20230;-77
2023/09/08 00:34:00;;;;;;;;;;;19.30;1.00;;;;;;4951124;28;20047;-78
2023/09/08 00:36:26;;;;;;;2.00;1.75;;;19.20;99.90;;;;;;4923570;29;19928;-77
2023/09/08 00:38:52;;;;;;;2.33;1.70;;;19.20;40.30;;;;;;4950485;28;20054;-77
2023/09/08 00:41:18;;;;;;;;;;;19.10;1.00;;;;;;4949645;28;20057;-77
2023/09/08 00:43:43;;;;;;;2.03;1.70;;;19.10;18.70;;;;;;4950962;28;20305;-77
2023/09/08 00:46:09;;;;;;;;;;;19.10;99.90;;;;;;4950572;28;20456;-77
2023/09/08 00:48:37;;;;;;;2.10;1.80;;;19.00;1.00;;;;;;4933036;28;19922;-77
2023/09/08 00:51:05;;;;;;;3.25;1.77;;;19.00;99.90;;;;;;4942056;29;20390;-77
2023/09/08 00:53:31;;;;;;;2.45;1.98;;;19.00;99.90;;;;;;4950174;29;20101;-77
2023/09/08 00:55:58;;;;;;;2.40;2.08;;;18.90;4.70;;;;;;4950289;28;20131;-77
2023/09/08 00:58:24;;;;;;;2.00;1.75;;;19.00;92.00;;;;;;4949047;28;20125;-77
2023/09/08 01:00:50;;;;;;;;;;;18.90;99.90;;;;;;4930098;29;20125;-77
2023/09/08 01:03:15;;;;;;;2.65;2.08;;;18.90;98.50;;;;;;4950695;29;19918;-78
2023/09/08 01:05:41;;;;;;;;;;;18.90;76.30;;;;;;4934838;29;20446;-77
2023/09/08 01:08:07;;;;;;;2.47;2.00;;;18.80;1.00;;;;;;4947316;29;19978;-77
2023/09/08 01:10:34;;;;;;;2.85;1.90;;;18.90;99.90;;;;;;4933707;28;20051;-77
2023/09/08 01:13:00;;;;;;;2.28;1.92;;;18.80;94.40;;;;;;4934009;29;20094;-77
2023/09/08 01:15:26;;;;;;;;;;;18.80;99.90;;;;;;4924300;29;20055;-77
2023/09/08 01:17:51;;;;;;;2.53;2.03;;;18.80;99.90;;;;;;4950949;29;19925;-77
2023/09/08 01:20:25;;;;;;;;;;;18.80;21.20;;;;;;4932163;29;20043;-78
2023/09/08 01:23:40;;;;;;;2.60;2.38;;;18.80;21.50;;;;;;4950374;29;20010;-77
2023/09/08 01:26:12;;;;;;;2.40;2.10;;;18.70;99.90;;;;;;4947612;29;20051;-77
2023/09/08 01:28:40;;;;;;;2.67;2.40;;;18.70;94.70;;;;;;4950544;28;20051;-78
2023/09/08 01:31:07;;;;;;;2.85;2.42;;;18.70;81.80;;;;;;4929761;29;20110;-78
2023/09/08 01:33:33;;;;;;;2.50;2.20;;;18.70;1.00;;;;;;4950646;28;20058;-78
2023/09/08 01:35:58;;;;;;;2.53;2.00;;;18.60;99.90;;;;;;4951146;29;20069;-77
2023/09/08 01:38:24;;;;;;;;;;;18.60;12.30;;;;;;4950310;28;20047;-77
2023/09/08 01:40:50;;;;;;;3.33;2.10;;;18.60;69.00;;;;;;4950000;29;20374;-78
2023/09/08 01:43:15;;;;;;;;;;;18.60;99.90;;;;;;4919385;29;20118;-78
2023/09/08 01:45:41;;;;;;;3.03;2.17;;;18.50;99.90;;;;;;4927925;29;19922;-78
2023/09/08 01:48:07;;;;;;;;;;;18.50;99.90;;;;;;4935303;29;20054;-77
2023/09/08 01:50:32;;;;;;;2.78;2.15;;;18.50;99.90;;;;;;4945442;29;19918;-77
2023/09/08 01:52:58;;;;;;;;;;;18.50;99.90;;;;;;4934196;29;20070;-77
2023/09/08 01:55:23;;;;;;;2.05;1.80;;;18.40;97.50;;;;;;4950222;28;19934;-77
2023/09/08 01:57:49;;;;;;;;;;;18.40;99.90;;;;;;4960876;28;20051;-77
2023/09/08 02:00:15;;;;;;;2.10;1.73;;;18.40;99.90;;;;;;4949239;29;20016;-77
2023/09/08 02:02:41;;;;;;;2.50;2.08;;;18.40;99.90;;;;;;4945494;28;20066;-77
2023/09/08 02:05:06;;;;;;;;;;;18.30;99.90;;;;;;4940705;29;20035;-77
2023/09/08 02:07:32;;;;;;;2.63;1.90;;;18.40;99.90;;;;;;4952147;28;20281;-77
2023/09/08 02:09:58;;;;;;;;;;;18.30;99.90;;;;;;4948994;29;20376;-77
2023/09/08 02:12:23;;;;;;;3.47;2.60;;;18.30;99.90;;;;;;4954063;28;19926;-77
2023/09/08 02:14:49;;;;;;;;;;;18.30;99.90;;;;;;4935839;29;20443;-77
2023/09/08 02:17:15;;;;;;;1.95;1.75;;;18.30;99.90;;;;;;4950413;29;19926;-77
2023/09/08 02:19:40;;;;;;;;;;;18.20;99.90;;;;;;4951430;28;20047;-77
2023/09/08 02:22:06;;;;;;;2.38;2.10;;;18.20;1.00;;;;;;4954423;28;19922;-77
2023/09/08 02:24:31;;;;;;;;;;;18.20;1.00;;;;;;4934025;29;20066;-77
2023/09/08 02:26:57;;;;;;;2.03;1.63;;;18.20;1.00;;;;;;4952460;28;19922;-77
2023/09/08 02:29:23;;;;;;;;;;;18.10;3.90;;;;;;4948899;29;20036;-77
2023/09/08 02:31:49;;;;;;;1.88;1.67;;;18.10;1.00;;;;;;4930866;29;19923;-77
2023/09/08 02:34:14;;;;;;;2.05;1.50;;;18.10;1.00;;;;;;4953235;29;20039;-77
2023/09/08 02:36:40;;;;;;;;;;;18.10;1.00;;;;;;4938490;29;20050;-77
2023/09/08 02:39:07;;;;;;;2.25;1.90;;;18.00;1.00;;;;;;4953355;28;19922;-77
2023/09/08 02:41:33;;;;;;;2.00;1.67;;;18.00;1.00;;;;;;4958124;28;20443;-77
2023/09/08 02:43:58;;;;;;;3.03;1.90;;;18.00;1.00;;;;;;4960409;28;20776;-77
2023/09/08 02:46:24;;;;;;;;;;;17.90;1.00;;;;;;4956231;28;20051;-77
2023/09/08 02:48:52;;;;;;;1.90;1.70;;;17.90;5.10;;;;;;4968917;28;19922;-77
2023/09/08 02:51:18;;;;;;;2.30;1.98;;;17.90;1.00;;;;;;4960455;28;20059;-77
2023/09/08 02:53:43;;;;;;;;;;;17.90;1.00;;;;;;4967457;28;20035;-77
2023/09/08 02:56:09;;;;;;;1.85;1.63;;;17.80;1.00;;;;;;4967443;28;19942;-77
2023/09/08 02:58:35;;;;;;;;;;;17.80;12.90;;;;;;4970148;28;20110;-77
2023/09/08 03:01:15;;;;;;;2.17;1.50;;;17.80;1.00;;;;;;4957434;28;19923;-77
2023/09/08 03:03:42;;;;;;;1.90;1.60;;;17.80;21.40;;;;;;4948237;28;20042;-77
2023/09/08 03:06:09;;;;;;;2.92;1.70;;;17.70;1.40;;;;;;4972862;28;20054;-78
2023/09/08 03:08:36;;;;;;;2.30;1.88;;;17.70;39.70;;;;;;4953843;28;20126;-78
2023/09/08 03:11:03;;;;;;;1.77;1.60;;;17.70;57.10;;;;;;4936950;29;20518;-77
2023/09/08 03:13:29;;;;;;;2.05;1.77;;;17.60;99.90;;;;;;4954539;28;20051;-77
2023/09/08 03:15:55;;;;;;;;;;;17.60;99.90;;;;;;4970919;28;20041;-77
2023/09/08 03:18:20;;;;;;;2.03;1.73;;;17.60;99.90;;;;;;4967230;28;19918;-77
2023/09/08 03:20:50;;;;;;;2.35;1.80;;;17.50;99.90;;;;;;4959949;28;20043;-77
2023/09/08 03:23:16;;;;;;;2.05;1.52;;;17.50;99.90;;;;;;4956478;28;20470;-77
2023/09/08 03:25:42;;;;;;;;;;;17.50;99.90;;;;;;4952624;28;20089;-77
2023/09/08 03:28:08;;;;;;;1.40;1.23;;;17.50;99.90;;;;;;4968731;28;19942;-77
2023/09/08 03:30:33;;;;;;;1.73;1.48;;;17.40;99.90;;;;;;4961885;28;20046;-77
2023/09/08 03:32:59;;;;;;;;;;;17.40;99.90;;;;;;4947476;29;20035;-77
2023/09/08 03:35:24;;;;;;;2.05;1.70;;;17.30;99.90;;;;;;4958468;28;20005;-77
2023/09/08 03:37:50;;;;;;;1.65;1.50;;;17.30;99.90;;;;;;4925201;28;20031;-77
2023/09/08 03:40:16;;;;;;;1.90;1.70;;;17.30;99.90;;;;;;4927390;28;20054;-77
2023/09/08 03:42:42;;;;;;;2.08;1.63;;;17.20;99.90;;;;;;4964933;28;20050;-77
2023/09/08 03:45:08;;;;;;;2.22;1.70;;;17.30;99.90;;;;;;4965865;28;20050;-77
2023/09/08 03:47:34;;;;;;;;;;;17.20;99.90;;;;;;4956585;28;20047;-77
2023/09/08 03:50:00;;;;;;;2.28;1.80;;;17.20;99.90;;;;;;4957853;28;19926;-77
2023/09/08 03:52:26;;;;;;;3.67;2.00;;;17.20;99.90;;;;;;4953829;28;20394;-77
2023/09/08 03:54:51;;;;;;;1.90;1.70;;;17.20;99.90;;;;;;4939651;29;20042;-77
2023/09/08 03:57:17;;;;;;;;;;;17.20;99.90;;;;;;4949311;28;20102;-77
2023/09/08 03:59:43;;;;;;;2.28;1.77;;;17.20;99.90;;;;;;4961655;28;20688;-77
2023/09/08 04:02:08;;;;;;;2.00;1.60;;;17.20;99.90;;;;;;4932633;29;20107;-77
2023/09/08 04:04:34;;;;;;;1.90;1.60;;;17.20;99.90;;;;;;4948701;28;20513;-77
2023/09/08 04:07:00;;;;;;;1.92;1.60;;;17.10;99.90;;;;;;4950800;28;20035;-77
2023/09/08 04:09:27;;;;;;;2.40;2.20;;;17.10;99.90;;;;;;4935816;29;20102;-77
2023/09/08 04:11:54;;;;;;;2.17;1.73;;;17.10;99.90;;;;;;4935559;29;20130;-77
2023/09/08 04:14:21;;;;;;;1.70;1.52;;;17.10;99.90;;;;;;4941202;29;20046;-77
2023/09/08 04:16:46;;;;;;;2.30;1.88;;;17.10;99.90;;;;;;4935393;29;20059;-77
2023/09/08 04:19:12;;;;;;;2.08;1.88;;;17.10;99.90;;;;;;4952093;28;20047;-77
2023/09/08 04:21:38;;;;;;;1.90;1.70;;;17.10;99.90;;;;;;4934860;29;20490;-77
2023/09/08 04:24:04;;;;;;;2.33;1.90;;;17.10;99.90;;;;;;4951513;28;20199;-77
2023/09/08 04:26:31;;;;;;;3.42;2.08;;;17.10;99.90;;;;;;4952768;28;20059;-77
2023/09/08 04:28:56;;;;;;;;;;;17.10;99.90;;;;;;4957656;28;20058;-77
2023/09/08 04:31:22;;;;;;;2.35;1.90;;;17.10;99.90;;;;;;4932105;29;20412;-77
2023/09/08 04:33:47;;;;;;;2.50;1.90;;;17.00;99.90;;;;;;4949670;29;20051;-77
2023/09/08 04:36:13;;;;;;;2.38;1.95;;;17.00;99.90;;;;;;4918969;29;20051;-77
2023/09/08 04:38:41;;;;;;;3.40;2.67;;;17.00;99.90;;;;;;4949728;28;20406;-77
2023/09/08 04:41:07;;;;;;;3.42;1.90;;;17.00;99.90;;;;;;4934926;28;20537;-77
2023/09/08 04:43:33;;;;;;;2.10;1.80;;;17.00;99.90;;;;;;4937211;29;20138;-77
2023/09/08 04:45:58;;;;;;;2.53;1.95;;;17.00;99.90;;;;;;4936107;29;20399;-77
2023/09/08 04:48:24;;;;;;;2.00;1.77;;;16.90;99.90;;;;;;4932401;29;20047;-77
2023/09/08 04:50:51;;;;;;;2.03;1.80;;;16.90;99.90;;;;;;4951903;28;20051;-75
2023/09/08 04:53:17;;;;;;;2.53;1.95;;;16.90;99.90;;;;;;4939187;29;20111;-75
2023/09/08 04:55:43;;;;;;;2.30;2.05;;;16.80;99.90;;;;;;4950088;28;20043;-75
2023/09/08 04:58:09;;;;;;;1.98;1.70;;;16.80;99.90;;;;;;4949047;29;20122;-76
2023/09/08 05:00:34;;;;;;;2.45;2.00;;;16.80;99.90;;;;;;4950354;29;20178;-77
2023/09/08 05:03:00;;;;;;;3.00;2.50;;;16.80;99.90;;;;;;4933406;29;20058;-77
2023/09/08 05:05:26;;;;;;;3.60;2.80;;;16.80;99.90;;;;;;4951236;28;20541;-79
2023/09/08 05:07:55;;;;;;;;;;;16.90;99.90;;;;;;4957286;28;20119;-79
2023/09/08 05:10:22;;;;;;;3.33;2.20;;;16.90;99.90;;;;;;4929228;29;19926;-79
2023/09/08 05:12:49;;;;;;;2.92;2.63;;;16.90;99.90;;;;;;4947436;28;20043;-79
2023/09/08 05:15:16;;;;;;;3.80;3.10;;;16.90;99.90;;;;;;4942277;29;20052;-79
2023/09/08 05:17:42;;;;;;;3.15;2.50;;;16.90;99.90;;;;;;4965157;28;20039;-79
2023/09/08 05:20:08;;;;;;;;;;;16.90;99.90;;;;;;4950893;29;20106;-79
2023/09/08 05:22:33;;;;;;;2.95;2.20;;;16.90;99.90;;;;;;4933906;29;19980;-79
2023/09/08 05:24:59;;;;;;;3.28;2.97;;;16.90;99.90;;;;;;4947168;29;20047;-77
2023/09/08 05:27:25;;;;;;;3.17;2.50;;;17.00;99.90;;;;;;4948234;28;20141;-79
2023/09/08 05:29:50;;;;;;;3.35;2.50;;;17.00;99.90;;;;;;4934307;29;20094;-79
2023/09/08 05:32:16;;;;;;;2.80;2.50;;;17.00;99.90;;;;;;4949762;29;20047;-79
2023/09/08 05:34:42;;;;;;;3.03;2.72;;;17.00;99.90;;;;;;4935008;29;20491;-79
2023/09/08 05:37:08;;;;;;;3.22;2.50;;;17.00;99.90;;;;;;4950264;29;20043;-79
2023/09/08 05:39:34;;;;;;;2.92;2.45;;;17.00;99.90;;;;;;4923899;28;20044;-79
2023/09/08 05:42:00;;;;;;;3.03;2.72;;;17.10;99.90;;;;;;4934489;29;20421;-79
2023/09/08 05:44:25;;;;;;;3.33;3.00;;;17.10;99.90;;;;;;4950206;28;20509;-79
2023/09/08 05:46:51;;;;;;;;;;;17.10;99.90;;;;;;4954890;28;20483;-79
2023/09/08 05:49:17;;;;;;;2.90;2.38;;;17.20;99.90;;;;;;4938176;29;19926;-79
2023/09/08 05:51:45;;;;;;;3.08;2.50;;;17.20;99.90;;;;;;4950962;28;20051;-79
2023/09/08 05:54:11;;;;;;;2.80;2.30;;;17.30;99.90;;;;;;4947851;28;20039;-79
2023/09/08 05:56:38;;;;;;;3.95;3.22;;;17.30;99.90;;;;;;4922577;29;20051;-79
2023/09/08 05:59:03;;;;;;;3.25;2.95;;;17.40;99.90;;;;;;4952812;29;20051;-78
2023/09/08 06:01:30;;;;;;;3.00;2.60;;;17.40;99.90;;;;;;4954642;29;20051;-78
2023/09/08 06:03:56;;;;;;;3.00;2.70;;;17.50;99.90;;;;;;4941873;28;20438;-74
2023/09/08 06:06:22;;;;;;;;;;;17.50;99.90;;;;;;4956631;28;20043;-73
2023/09/08 06:08:47;;;;;;;2.92;2.30;;;17.60;99.90;;;;;;4936072;29;19969;-74
2023/09/08 06:11:14;;;;;;;2.60;2.40;;;17.70;99.90;;;;;;4934743;29;20039;-73
2023/09/08 06:13:39;;;;;;;3.10;2.70;;;17.70;99.90;;;;;;4935804;29;20127;-73
2023/09/08 06:16:05;;;;;;;;;;;17.80;99.90;;;;;;4936794;29;20415;-73
2023/09/08 06:18:31;;;;;;;2.40;1.98;;;17.90;99.90;;;;;;4945616;28;19918;-73
2023/09/08 06:20:57;;;;;;;;;;;17.90;99.90;;;;;;4956616;28;20050;-75
2023/09/08 06:23:22;;;;;;;2.35;1.80;;;18.00;99.90;;;;;;4949983;28;20013;-75
2023/09/08 06:25:49;;;;;;;3.00;2.45;;;18.10;99.90;;;;;;4935500;29;20094;-75
2023/09/08 06:28:15;;;;;;;2.53;2.33;;;18.20;99.90;;;;;;4957172;28;20351;-75
2023/09/08 06:30:43;;;;;;;;;;;18.30;99.90;;;;;;4920772;28;20138;-75
2023/09/08 06:33:08;;;;;;;2.40;2.15;;;18.40;99.10;;;;;;4931170;29;19922;-74
2023/09/08 06:35:37;;;;;;;3.22;2.25;;;18.50;86.60;;;;;;4933853;29;20114;-75
2023/09/08 06:38:03;;;;;;;;;;;18.60;79.30;;;;;;4937520;29;20043;-74
2023/09/08 06:40:32;;;;;;;1.92;1.73;;;19.00;92.70;;;;;;4953200;29;20329;-75
2023/09/08 06:42:57;;;;;;;2.53;2.30;;;19.50;1.00;;;;;;4957982;28;20110;-75
2023/09/08 06:45:23;;;;;;;;;;;20.00;99.90;;;;;;4955542;28;20456;-75
2023/09/08 06:47:50;;;;;;;2.10;1.90;;;20.50;99.90;;;;;;4948876;28;19922;-75
2023/09/08 06:50:16;;;;;;;4.55;2.30;;;20.80;99.90;;;;;;4934766;29;20109;-75
2023/09/08 06:52:42;;;;;;;2.58;2.22;;;21.20;99.90;;;;;;4948597;28;20047;-74
2023/09/08 06:55:09;;;;;;;2.17;1.98;;;21.50;1.00;;;;;;4936607;29;20073;-75
2023/09/08 06:57:34;;;;;;;2.17;1.88;;;21.70;32.10;;;;;;4951521;29;20082;-74
2023/09/08 07:00:00;;;;;;;2.13;1.92;;;22.00;1.00;;;;;;4951217;29;20505;-75
2023/09/08 07:02:27;;;;;;;2.20;1.90;;;22.20;1.00;;;;;;4956406;28;20043;-75
2023/09/08 07:04:52;;;;;;;1.77;1.65;;;22.40;99.90;;;;;;4962269;28;20462;-74
2023/09/08 07:07:20;;;;;;;2.60;1.90;;;22.50;99.90;;;;;;4951137;28;20051;-74
2023/09/08 07:09:46;;;;;;;1.90;1.70;;;22.60;99.90;;;;;;4949281;29;20093;-74
2023/09/08 07:12:11;;;;;;;2.40;2.15;;;22.70;99.90;;;;;;4930734;29;20071;-75
2023/09/08 07:14:38;;;;;;;2.17;1.67;;;22.80;99.90;;;;;;4932259;29;20040;-75
2023/09/08 07:17:03;;;;;;;1.73;1.60;;;23.00;99.90;;;;;;4945219;29;20427;-75
2023/09/08 07:19:29;;;;;;;1.85;1.60;;;23.10;99.90;;;;;;4917517;28;20147;-74
2023/09/08 07:21:55;;;;;;;1.60;1.50;;;23.20;99.90;;;;;;4934014;29;20047;-74
2023/09/08 07:24:21;;;;;;;2.20;1.77;;;23.40;30.10;;;;;;4951656;28;20047;-75
2023/09/08 07:26:46;;;;;;;2.88;1.80;;;23.40;16.70;;;;;;4939386;29;20049;-74
2023/09/08 07:29:12;;;;;;;2.45;1.98;;;23.50;54.60;;;;;;4936226;29;20078;-74
2023/09/08 07:31:39;;;;;;;1.77;1.52;;;23.70;64.80;;;;;;4946735;29;20043;-74
2023/09/08 07:34:05;;;;;;;1.45;1.23;;;23.70;1.00;;;;;;4944250;29;20039;-75
2023/09/08 07:36:31;;;;;;;2.08;1.60;;;23.80;1.00;;;;;;4953517;28;20057;-75
2023/09/08 07:38:57;;;;;;;1.75;1.63;;;23.90;11.20;;;;;;4950193;28;20047;-75
2023/09/08 07:41:23;;;;;;;2.05;1.80;;;24.00;1.00;;;;;;4930273;28;20061;-75
2023/09/08 07:43:50;;;;;;;1.90;1.70;;;24.00;4.80;;;;;;4946840;28;20060;-75
2023/09/08 07:46:16;;;;;;;1.70;1.60;;;24.10;29.20;;;;;;4934566;29;20054;-75
2023/09/08 07:48:42;;;;;;;1.70;1.60;;;24.20;99.90;;;;;;4953049;28;20414;-75
2023/09/08 07:51:07;;;;;;;3.35;1.95;;;24.20;1.00;;;;;;4967221;28;20039;-75
2023/09/08 07:53:33;;;;;;;2.05;1.60;;;24.30;1.00;;;;;;4933898;29;20510;-75
2023/09/08 07:55:59;;;;;;;2.03;1.70;;;24.30;88.70;;;;;;4952944;28;20093;-75
2023/09/08 07:58:24;;;;;;;1.88;1.63;;;24.40;65.40;;;;;;4950468;29;20047;-75
2023/09/08 08:00:50;;;;;;;1.90;1.70;;;24.50;20.70;;;;;;4952098;28;20051;-75
2023/09/08 08:03:16;;;;;;;1.83;1.60;;;24.50;1.00;;;;;;4951599;28;20054;-75
2023/09/08 08:05:41;;;;;;;1.73;1.60;;;24.60;1.00;;;;;;4930533;29;20051;-75
2023/09/08 08:08:09;;;;;;;2.10;1.70;;;24.70;1.00;;;;;;4936379;29;20398;-75
2023/09/08 08:10:35;;;;;;;2.00;1.80;;;24.90;78.10;;;;;;4935086;28;20054;-75
2023/09/08 08:13:00;;;;;;;2.00;1.80;;;25.00;13.30;;;;;;4948864;28;20039;-75
2023/09/08 08:15:37;;;;;;;1.60;1.50;;;25.10;36.20;;;;;;4948236;29;20053;-75
2023/09/08 08:18:05;;;;;;;1.77;1.60;;;25.30;1.00;;;;;;4931397;29;20042;-75
2023/09/08 08:20:34;;;;;;;3.90;2.13;;;25.50;1.00;;;;;;4949661;29;20406;-75
2023/09/08 08:23:01;;;;;;;1.88;1.70;;;25.60;1.00;;;;;;4941555;28;20047;-75
2023/09/08 08:25:27;;;;;;;1.67;1.58;;;25.80;99.90;;;;;;4954604;28;20134;-75
2023/09/08 08:27:53;;;;;;;2.03;1.40;;;25.90;99.90;;;;;;4940008;29;20047;-75
2023/09/08 08:30:19;;;;;;;2.45;1.60;;;26.00;99.90;;;;;;4953824;28;20154;-75
2023/09/08 08:32:45;;;;;;;1.75;1.50;;;26.10;99.90;;;;;;4937131;29;20501;-75
2023/09/08 08:35:11;;;;;;;2.50;1.40;;;26.30;99.90;;;;;;4932500;29;20039;-75
2023/09/08 08:37:40;;;;;;;1.67;1.50;;;26.30;60.80;;;;;;4948650;29;20457;-76
2023/09/08 08:40:06;;;;;;;1.70;1.50;;;26.40;33.80;;;;;;4951312;28;20473;-76
2023/09/08 08:42:33;;;;;;;3.05;1.58;;;26.50;14.70;;;;;;4934277;29;20518;-76
2023/09/08 08:45:01;;;;;;;1.67;1.50;;;26.60;61.60;;;;;;4928438;29;20043;-75
2023/09/08 08:47:30;;;;;;;1.80;1.60;;;26.80;1.00;;;;;;4948411;29;20039;-75
2023/09/08 08:50:00;;;;;;;2.38;1.63;;;26.80;1.00;;;;;;4950071;29;20055;-76
2023/09/08 08:52:29;;;;;;;2.28;1.70;;;26.90;1.00;;;;;;4943058;29;20039;-76
2023/09/08 08:54:55;;;;;;;1.42;1.30;;;27.10;1.00;;;;;;4918108;29;20122;-76
2023/09/08 08:57:27;;;;;;;1.45;1.30;;;27.20;99.90;;;;;;4935557;28;20073;-77
2023/09/08 08:59:53;;;;;;;1.83;1.70;;;27.20;1.00;;;;;;4929046;29;20043;-77
2023/09/08 09:02:19;;;;;;;1.75;1.38;;;27.20;1.00;;;;;;4951410;28;20386;-77
2023/09/08 09:04:46;;;;;;;1.58;1.40;;;27.30;1.00;;;;;;4960882;28;20470;-78
2023/09/08 09:07:13;;;;;;;1.73;1.40;;;27.30;1.00;;;;;;4954287;28;20074;-78
2023/09/08 09:09:40;;;;;;;1.70;1.45;;;27.50;99.90;;;;;;4953782;28;20538;-78
2023/09/08 09:12:06;;;;;;;2.28;1.58;;;27.60;99.90;;;;;;4970284;28;20039;-78
2023/09/08 09:14:33;;;;;;;1.92;1.60;;;27.50;99.90;;;;;;4949849;28;20046;-78
2023/09/08 09:17:00;;;;;;;1.95;1.73;;;27.50;99.90;;;;;;4941136;29;20139;-78
2023/09/08 09:19:31;;;;;;;1.63;1.33;;;27.50;99.90;;;;;;4948143;28;20051;-78
2023/09/08 09:21:57;;;;;;;1.90;1.60;;;27.70;99.90;;;;;;4926208;29;20063;-78
2023/09/08 09:24:36;;;;;;;1.75;1.58;;;27.60;99.90;;;;;;4922088;28;20150;-78
2023/09/08 09:27:05;;;;;;;2.17;1.60;;;27.60;99.90;;;;;;4949883;28;20046;-78
2023/09/08 09:29:31;;;;;;;1.88;1.40;;;27.80;99.90;;;;;;4949324;28;20138;-78
2023/09/08 09:32:06;;;;;;;1.70;1.50;;;27.90;99.90;;;;;;4946134;28;20443;-78
2023/09/08 09:34:32;;;;;;;1.60;1.30;;;28.00;99.90;;;;;;4939088;28;20093;-78
2023/09/08 09:36:58;;;;;;;1.58;1.30;;;28.00;99.90;;;;;;4961935;28;20105;-78
2023/09/08 09:39:25;;;;;;;1.50;1.40;;;28.00;99.90;;;;;;4951719;28;20065;-78
2023/09/08 09:41:56;;;;;;;1.40;1.30;;;28.10;99.90;;;;;;4933177;29;20073;-78
2023/09/08 09:44:22;;;;;;;1.58;1.33;;;28.20;99.90;;;;;;4955490;28;20114;-77
2023/09/08 09:46:51;;;;;;;1.60;1.30;;;28.30;99.90;;;;;;4946907;28;20565;-76
2023/09/08 09:49:20;;;;;;;1.60;1.30;;;28.40;99.90;;;;;;4931662;29;20097;-76
2023/09/08 09:51:53;;;;;;;1.45;1.30;;;28.50;99.90;;;;;;4953659;28;20106;-77
2023/09/08 09:54:18;;;;;;;1.65;1.33;;;28.50;99.90;;;;;;4923951;29;20106;-77
2023/09/08 09:56:46;;;;;;;1.48;1.38;;;28.50;99.90;;;;;;4924552;29;20039;-76
2023/09/08 09:59:14;;;;;;;2.53;1.30;;;28.60;99.90;;;;;;4947153;29;20510;-77
2023/09/08 10:01:42;;;;;;;1.73;1.33;;;28.70;99.90;;;;;;4939170;29;20040;-77
2023/09/08 10:04:08;;;;;;;2.97;1.40;;;28.80;99.90;;;;;;4942404;29;20388;-77
2023/09/08 10:06:37;;;;;;;1.35;1.13;;;29.00;99.90;;;;;;4951513;28;20116;-78
2023/09/08 10:09:05;;;;;;;1.50;1.30;;;29.00;99.90;;;;;;4955947;28;20114;-78
2023/09/08 10:11:41;;;;;;;1.58;1.42;;;28.90;16.50;;;;;;4912502;28;20058;-77
2023/09/08 10:14:11;;;;;;;1.33;1.23;;;29.00;1.00;;;;;;4946269;28;20031;-78
2023/09/08 10:16:39;;;;;;;1.48;1.23;;;29.10;47.90;;;;;;4953087;28;20089;-78
2023/09/08 10:19:09;;;;;;;1.42;1.25;;;29.20;20.00;;;;;;4932493;29;20039;-78
2023/09/08 10:21:42;;;;;;;1.55;1.30;;;29.30;1.00;;;;;;4968675;28;20082;-77
2023/09/08 10:24:26;;;;;;;2.20;1.50;;;29.30;1.00;;;;;;4944389;28;20047;-77
2023/09/08 10:27:11;;;;;;;1.80;1.50;;;29.30;99.90;;;;;;4946125;29;20074;-79
2023/09/08 10:29:38;;;;;;;2.00;1.50;;;29.30;99.90;;;;;;4930861;29;20039;-77
2023/09/08 10:32:06;;;;;;;1.95;1.67;;;29.30;99.90;;;;;;4923335;29;20042;-78
2023/09/08 10:34:33;;;;;;;1.70;1.50;;;29.40;99.90;;;;;;4949635;29;20043;-77
2023/09/08 10:36:59;;;;;;;1.65;1.27;;;29.50;99.90;;;;;;4950490;29;20059;-77
2023/09/08 10:39:38;;;;;;;1.42;1.20;;;29.80;99.90;;;;;;4949632;28;20118;-77
2023/09/08 10:42:16;;;;;;;2.17;1.30;;;29.80;99.90;;;;;;4947189;28;20059;-78
2023/09/08 10:44:51;;;;;;;1.45;1.25;;;29.80;99.90;;;;;;4943181;29;20047;-77
2023/09/08 10:47:30;;;;;;;1.52;1.30;;;30.00;99.90;;;;;;4923871;28;20051;-76
2023/09/08 10:49:57;;;;;;;1.90;1.42;;;30.20;99.90;;;;;;4953337;29;20035;-76
2023/09/08 10:52:24;;;;;;;1.40;1.30;;;30.10;99.90;;;;;;4919798;29;20051;-76
2023/09/08 10:54:55;;;;;;;1.70;1.40;;;30.20;99.90;;;;;;4944403;29;20082;-76
2023/09/08 10:57:23;;;;;;;1.33;1.20;;;30.20;99.90;;;;;;4950925;29;20115;-76
2023/09/08 10:59:56;;;;;;;1.70;1.30;;;30.30;99.90;;;;;;4950936;29;20055;-76
2023/09/08 11:02:42;;;;;;;1.60;1.38;;;30.40;99.90;;;;;;4941612;28;20369;-76
2023/09/08 11:05:08;;;;;;;1.52;1.42;;;30.60;99.90;;;;;;4945289;29;20079;-76
2023/09/08 11:07:39;;;;;;;1.88;1.50;;;30.70;99.90;;;;;;4955349;28;20062;-76
2023/09/08 11:10:06;;;;;;;2.80;1.92;;;30.90;99.90;;;;;;4941221;29;20050;-77
2023/09/08 11:12:32;;;;;;;1.52;1.33;;;30.90;56.10;;;;;;4935500;29;20043;-77
2023/09/08 11:15:00;;;;;;;1.88;1.20;;;31.00;1.00;;;;;;4950332;29;20129;-77
2023/09/08 11:17:30;;;;;;;1.67;1.30;;;31.10;1.00;;;;;;4947018;29;20047;-76
2023/09/08 11:19:56;;;;;;;1.65;1.30;;;31.20;1.00;;;;;;4965545;28;20047;-77
2023/09/08 11:22:24;;;;;;;1.88;1.25;;;31.20;99.90;;;;;;4959633;28;20364;-77
2023/09/08 11:24:51;;;;;;;1.55;1.40;;;31.30;1.00;;;;;;4951086;28;20108;-76
2023/09/08 11:27:17;;;;;;;1.20;1.10;;;31.50;99.90;;;;;;4949473;29;20115;-76
2023/09/08 11:29:52;;;;;;;1.40;1.30;;;31.60;1.00;;;;;;4949542;28;20055;-77
2023/09/08 11:32:20;;;;;;;1.40;1.30;;;31.80;99.90;;;;;;4951280;28;20495;-77
2023/09/08 11:35:12;;;;;;;1.60;1.38;;;31.90;99.90;;;;;;4943886;28;20069;-76
2023/09/08 12:46:01;;;;;;;1.90;1.40;;;32.80;77.50;;;;;;5773920;23;20023;31
2023/09/08 12:48:58;;;;;;;1.50;1.40;;;33.10;71.30;;;;;;5231379;23;20281;31
2023/09/08 12:51:24;;;;;;;1.55;1.42;;;33.30;66.40;;;;;;5485042;23;21665;-75
2023/09/08 12:53:49;;;;;;;1.70;1.50;;;33.20;38.40;;;;;;4870623;29;20079;-74
2023/09/08 12:56:15;;;;;;;1.88;1.67;;;33.10;31.10;;;;;;4874735;29;20125;-74
2023/09/08 12:58:40;;;;;;;1.35;1.25;;;33.10;54.30;;;;;;4871088;29;20036;-74
2023/09/08 13:01:06;;;;;;;1.70;1.30;;;33.10;32.40;;;;;;4868983;29;20548;-75
2023/09/08 13:16:55;;;;;;;1.60;1.48;;;32.90;14.80;;;;;;4887833;23;20018;-75
2023/09/08 13:19:21;;;;;;;2.05;1.63;;;33.00;10.20;;;;;;4877832;29;20551;-75
2023/09/08 13:21:47;;;;;;;1.85;1.35;;;33.10;18.80;;;;;;4893443;29;20040;-75
2023/09/08 13:24:12;;;;;;;1.33;1.15;;;33.10;12.30;;;;;;4893516;29;20040;-75
2023/09/08 13:26:38;;;;;;;1.75;1.40;;;33.10;1.00;;;;;;4871545;29;20507;-75
2023/09/08 13:29:04;;;;;;;1.50;1.20;;;33.00;2.10;;;;;;4881701;29;20076;-75
2023/09/08 13:31:29;;;;;;;1.30;1.20;;;33.10;23.30;;;;;;4891752;29;20092;-76
2023/09/08 13:33:55;;;;;;;1.85;1.40;;;33.20;28.10;;;;;;4890304;29;20134;-76
2023/09/08 13:36:20;;;;;;;1.60;1.40;;;33.20;1.00;;;;;;4888822;29;20137;-76
2023/09/08 13:38:46;;;;;;;2.03;1.50;;;33.10;1.00;;;;;;4891088;29;20044;-77
2023/09/08 13:41:12;;;;;;;1.35;1.25;;;33.00;1.00;;;;;;4890386;29;20044;-76
2023/09/08 13:43:37;;;;;;;1.40;1.10;;;33.10;1.00;;;;;;4893288;29;20083;-77
2023/09/08 13:46:03;;;;;;;2.00;1.33;;;33.10;1.00;;;;;;4899605;29;20036;-76
2023/09/08 13:48:29;;;;;;;1.48;1.30;;;33.10;1.00;;;;;;4892297;29;20040;-77
2023/09/08 13:50:55;;;;;;;2.13;1.55;;;33.10;1.00;;;;;;4891115;29;20044;-76
2023/09/08 13:53:21;;;;;;;1.42;1.33;;;33.10;1.00;;;;;;4888386;29;20589;-76
2023/09/08 13:55:47;;;;;;;1.48;1.30;;;33.10;1.00;;;;;;4891431;29;20169;-76
2023/09/08 13:58:13;;;;;;;1.30;1.13;;;33.10;1.00;;;;;;4889596;29;20400;-76
2023/09/08 14:00:39;;;;;;;1.40;1.30;;;33.10;1.00;;;;;;4891910;29;20045;-76
2023/09/08 14:03:05;;;;;;;1.50;1.30;;;33.20;1.00;;;;;;4886781;29;21715;-76
2023/09/08 14:05:31;;;;;;;1.20;1.10;;;33.10;1.00;;;;;;4889039;29;20552;-76
2023/09/08 14:07:56;;;;;;;1.27;1.17;;;33.30;1.00;;;;;;4892460;29;20068;-76
2023/09/08 14:10:23;;;;;;;1.50;1.20;;;33.20;1.00;;;;;;4890209;29;20404;-77
2023/09/08 14:12:49;;;;;;;1.50;1.27;;;33.30;1.00;;;;;;4878047;29;20049;-77
2023/09/08 14:15:16;;;;;;;1.30;1.20;;;33.30;1.00;;;;;;4872154;29;20132;-77
2023/09/08 14:17:42;;;;;;;1.52;1.20;;;33.30;1.00;;;;;;4863480;29;20064;-77
2023/09/08 14:20:08;;;;;;;2.22;1.42;;;33.30;1.00;;;;;;4850536;29;20053;-77
2023/09/08 14:22:34;;;;;;;1.40;1.10;;;33.20;1.00;;;;;;4863504;29;20049;-76